createdAt,value
2022-11-27T00:01:54.565Z,101363.03
2022-11-27T00:06:03.433Z,101366.81
2022-11-27T00:10:09.190Z,101368.16
2022-11-27T00:14:13.293Z,101353.81
2022-11-27T00:18:15.295Z,101343.41
2022-11-27T00:22:17.190Z,101344.06
2022-11-27T00:26:19.501Z,101330.25
2022-11-27T00:30:21.505Z,101331.72
2022-11-27T00:34:23.475Z,101329.28
2022-11-27T00:38:25.435Z,101329.88
2022-11-27T00:42:27.601Z,101337.09
2022-11-27T00:46:30.960Z,101331.72
2022-11-27T00:50:34.073Z,101327.34
2022-11-27T00:54:36.042Z,101332.25
2022-11-27T00:58:38.080Z,101326.56
2022-11-27T01:02:40.731Z,101338.56
2022-11-27T01:06:49.746Z,101340.59
2022-11-27T01:10:58.963Z,101316.19
2022-11-27T01:15:10.644Z,101329.28
2022-11-27T01:19:13.062Z,101322.00
2022-11-27T01:23:15.006Z,101321.56
2022-11-27T01:27:16.860Z,101308.47
2022-11-27T01:31:21.815Z,101297.59
2022-11-27T01:35:23.863Z,101299.28
2022-11-27T01:39:25.798Z,101301.75
2022-11-27T01:43:43.677Z,101283.56
2022-11-27T01:47:57.633Z,101286.78
2022-11-27T01:52:21.285Z,101274.75
2022-11-27T01:56:23.279Z,101283.34
2022-11-27T02:00:25.383Z,101268.16
2022-11-27T02:04:27.402Z,101263.97
2022-11-27T02:08:35.059Z,101256.16
2022-11-27T02:13:26.793Z,101255.75
2022-11-27T02:17:40.792Z,101267.72
2022-11-27T02:21:57.934Z,101241.94
2022-11-27T02:26:27.530Z,101246.25
2022-11-27T02:30:31.177Z,101249.19
2022-11-27T02:34:38.014Z,101250.28
2022-11-27T02:38:44.490Z,101253.31
2022-11-27T02:42:56.163Z,101254.00
2022-11-27T02:46:58.142Z,101247.13
2022-11-27T02:51:00.368Z,101252.97
2022-11-27T02:55:05.540Z,101257.25
2022-11-27T02:59:10.466Z,101258.06
2022-11-27T03:03:13.476Z,101263.19
2022-11-27T03:07:31.566Z,101259.00
2022-11-27T03:11:40.454Z,101269.84
2022-11-27T03:16:00.906Z,101268.88
2022-11-27T03:20:22.480Z,101277.50
2022-11-27T03:24:24.817Z,101273.38
2022-11-27T03:28:27.006Z,101268.00
2022-11-27T03:32:29.167Z,101264.97
2022-11-27T03:36:31.098Z,101259.78
2022-11-27T03:40:50.319Z,101263.63
2022-11-27T03:45:22.861Z,101261.47
2022-11-27T03:50:04.651Z,101261.06
2022-11-27T03:54:50.193Z,101254.56
2022-11-27T03:59:20.767Z,101248.28
2022-11-27T04:03:25.663Z,101242.94
2022-11-27T04:07:27.574Z,101238.88
2022-11-27T04:11:29.539Z,101243.19
2022-11-27T04:15:31.420Z,101245.44
2022-11-27T04:19:33.301Z,101243.47
2022-11-27T04:23:35.212Z,101246.81
2022-11-27T04:27:37.095Z,101242.84
2022-11-27T04:31:39.140Z,101252.28
2022-11-27T04:35:41.111Z,101258.38
2022-11-27T04:39:42.887Z,101250.00
2022-11-27T04:43:44.771Z,101255.31
2022-11-27T04:47:46.684Z,101265.97
2022-11-27T04:51:48.606Z,101251.66
2022-11-27T04:55:52.505Z,101251.97
2022-11-27T04:59:54.656Z,101245.69
2022-11-27T05:03:56.464Z,101236.34
2022-11-27T05:07:58.403Z,101248.44
2022-11-27T05:12:00.265Z,101238.75
2022-11-27T05:16:02.337Z,101242.84
2022-11-27T05:20:05.027Z,101238.50
2022-11-27T05:24:07.157Z,101251.25
2022-11-27T05:28:09.039Z,101265.50
2022-11-27T05:32:11.006Z,101259.91
2022-11-27T05:36:13.047Z,101258.94
2022-11-27T05:40:19.520Z,101278.69
2022-11-27T05:44:22.094Z,101275.16
2022-11-27T05:48:24.482Z,101265.59
2022-11-27T05:52:27.203Z,101260.69
2022-11-27T05:56:29.504Z,101271.00
2022-11-27T06:00:31.701Z,101263.22
2022-11-27T06:04:34.904Z,101268.53
2022-11-27T06:08:37.692Z,101260.09
2022-11-27T06:12:39.712Z,101256.78
2022-11-27T06:16:41.720Z,101259.81
2022-11-27T06:20:46.862Z,101257.88
2022-11-27T06:24:52.090Z,101247.81
2022-11-27T06:28:54.893Z,101240.13
2022-11-27T06:32:56.919Z,101249.47
2022-11-27T06:36:59.432Z,101242.78
2022-11-27T06:41:19.142Z,101254.00
2022-11-27T06:45:21.300Z,101246.66
2022-11-27T06:49:27.167Z,101229.75
2022-11-27T06:53:33.529Z,101225.00
2022-11-27T06:57:35.330Z,101225.75
2022-11-27T07:01:37.211Z,101233.31
2022-11-27T07:06:15.298Z,101233.50
2022-11-27T07:10:17.404Z,101237.50
2022-11-27T07:14:19.251Z,101231.19
2022-11-27T07:18:21.166Z,101236.06
2022-11-27T07:22:29.108Z,101244.19
2022-11-27T09:42:13.405Z,101117.63
2022-11-27T09:46:28.825Z,101109.34
2022-11-27T09:50:41.358Z,101088.13
2022-11-27T09:55:10.122Z,101093.97
2022-11-27T09:59:21.978Z,101083.81
2022-11-27T10:03:50.160Z,101073.19
2022-11-27T10:08:12.499Z,101075.81
2022-11-27T10:24:44.715Z,101045.06
2022-11-27T10:35:07.558Z,101025.56
2022-11-27T10:45:50.190Z,101015.22
2022-11-27T11:01:05.435Z,100992.88
2022-11-27T11:16:39.240Z,100980.47
2022-11-27T11:22:09.173Z,100957.13
2022-11-27T11:27:26.224Z,100979.63
2022-11-27T11:32:07.574Z,100972.13
2022-11-27T11:46:51.713Z,100976.41
2022-11-27T11:52:31.003Z,100971.72
2022-11-27T11:57:11.099Z,100964.53
2022-11-27T12:02:22.675Z,100942.81
2022-11-27T12:07:30.136Z,100939.38
2022-11-27T12:11:47.836Z,100942.84
2022-11-27T12:16:29.346Z,100944.38
2022-11-27T12:21:12.515Z,100933.97
2022-11-27T12:25:58.474Z,100941.47
2022-11-27T12:48:49.897Z,100900.66
2022-11-27T13:38:18.565Z,100808.06
2022-11-27T13:42:22.580Z,100794.53
2022-11-27T13:46:27.571Z,100802.84
2022-11-27T13:50:31.860Z,100798.56
2022-11-27T13:54:36.789Z,100781.41
2022-11-27T13:58:40.786Z,100781.84
2022-11-27T14:02:50.941Z,100794.22
2022-11-27T14:07:07.046Z,100796.63
2022-11-27T14:11:14.002Z,100789.22
2022-11-27T14:15:18.932Z,100795.22
2022-11-27T14:19:35.822Z,100787.41
2022-11-27T14:23:49.956Z,100796.16
2022-11-27T14:28:12.695Z,100786.91
2022-11-27T14:32:21.362Z,100782.88
2022-11-27T14:36:31.899Z,100780.66
2022-11-27T14:40:33.787Z,100780.88
2022-11-27T14:44:35.701Z,100765.09
2022-11-27T14:48:57.432Z,100771.22
2022-11-27T14:52:59.370Z,100759.88
2022-11-27T14:57:01.443Z,100764.47
2022-11-27T15:01:09.349Z,100750.13
2022-11-27T15:05:25.355Z,100756.16
2022-11-27T15:09:43.434Z,100762.63
2022-11-27T15:13:51.511Z,100756.38
2022-11-27T15:17:58.748Z,100749.00
2022-11-27T15:22:00.672Z,100741.03
2022-11-27T15:26:02.575Z,100741.56
2022-11-27T15:30:12.867Z,100741.13
2022-11-27T15:34:17.456Z,100754.94
2022-11-27T15:38:19.359Z,100747.91
2022-11-27T15:42:21.499Z,100749.59
2022-11-27T15:46:32.714Z,100738.16
2022-11-27T15:50:39.890Z,100733.25
2022-11-27T15:54:42.098Z,100733.28
2022-11-27T15:58:44.149Z,100724.38
2022-11-27T16:02:46.213Z,100713.63
2022-11-27T16:06:48.133Z,100711.59
2022-11-27T16:10:50.045Z,100701.34
2022-11-27T16:15:02.930Z,100708.06
2022-11-27T16:19:06.423Z,100701.44
2022-11-27T16:23:08.426Z,100704.66
2022-11-27T16:27:18.389Z,100704.94
2022-11-27T16:31:20.610Z,100709.75
2022-11-27T16:35:32.056Z,100707.66
2022-11-27T16:39:38.467Z,100707.16
2022-11-27T16:50:47.455Z,100713.44
2022-11-27T16:54:52.935Z,100707.63
2022-11-27T17:00:15.943Z,100712.69
2022-11-27T17:08:48.525Z,100694.13
2022-11-27T19:16:56.585Z,100572.13
2022-11-27T19:21:01.853Z,100567.41
2022-11-27T19:25:09.066Z,100564.66
2022-11-27T19:29:18.433Z,100560.59
2022-11-27T19:46:20.569Z,100572.16
2022-11-27T20:12:22.972Z,100534.38
2022-11-27T20:16:25.369Z,100529.84
2022-11-27T20:20:33.933Z,100533.81
2022-11-27T20:24:58.128Z,100527.06
2022-11-27T20:29:01.313Z,100514.16
2022-11-27T20:33:07.982Z,100506.97
2022-11-27T20:37:19.406Z,100511.03
2022-11-27T20:41:27.178Z,100518.59
2022-11-27T20:45:32.186Z,100517.34
2022-11-27T20:49:34.081Z,100515.94
2022-11-27T20:53:36.572Z,100510.47
2022-11-27T20:57:38.648Z,100504.94
2022-11-27T21:01:44.381Z,100507.97
2022-11-27T21:06:31.354Z,100496.34
2022-11-27T21:10:58.068Z,100487.03
2022-11-27T21:15:20.830Z,100489.88
2022-11-27T21:19:53.766Z,100487.84
2022-11-27T21:24:07.027Z,100479.16
2022-11-27T21:28:36.844Z,100476.66
2022-11-27T21:32:51.203Z,100476.28
2022-11-27T21:36:59.419Z,100469.38
2022-11-27T21:41:01.304Z,100469.56
2022-11-27T21:45:05.715Z,100458.81
2022-11-27T21:49:23.028Z,100451.00
2022-11-27T21:53:25.027Z,100447.75
2022-11-27T21:57:26.897Z,100449.22
2022-11-27T22:01:28.827Z,100447.59
2022-11-27T22:05:30.842Z,100444.25
2022-11-27T22:09:33.641Z,100433.44
2022-11-27T22:13:36.201Z,100429.84
2022-11-27T22:17:38.505Z,100422.81
2022-11-27T22:21:40.380Z,100416.53
2022-11-27T22:25:42.183Z,100412.38
2022-11-27T22:29:44.046Z,100412.28
2022-11-27T22:33:46.345Z,100400.47
2022-11-27T22:37:48.389Z,100394.56
2022-11-27T22:41:50.372Z,100389.38
2022-11-27T22:45:52.242Z,100381.06
2022-11-27T22:49:54.217Z,100377.09
2022-11-27T22:53:56.102Z,100375.53
2022-11-27T22:57:58.067Z,100361.84
2022-11-27T23:01:59.995Z,100374.81
2022-11-27T23:06:01.957Z,100367.38
2022-11-27T23:10:04.251Z,100355.19
2022-11-27T23:14:06.232Z,100355.00
2022-11-27T23:18:08.367Z,100357.78
2022-11-27T23:22:10.242Z,100357.47
2022-11-27T23:26:20.437Z,100342.47
2022-11-27T23:30:22.296Z,100345.63
2022-11-27T23:34:24.338Z,100333.59
2022-11-27T23:38:26.250Z,100341.34
2022-11-27T23:42:28.245Z,100337.66
2022-11-27T23:46:30.576Z,100331.00
2022-11-27T23:50:32.407Z,100315.25
2022-11-27T23:54:34.326Z,100328.28
2022-11-27T23:58:36.354Z,100314.38
